Time;durP1;ratioP1;P1;durP2;ratioP2;P2;SDS_P1;SDS_P2;PMS_P1;PMS_P2;Temp;Humidity;BMP_temperature;BMP_pressure;BME280_temperature;BME280_humidity;BME280_pressure;Samples;Min_cycle;Max_cycle;Signal;HPM_P1;HPM_P2
2022/07/31 00:00:10;;;;;;;7.80;7.00;;;;;;;17.88;93.95;101058.72;107338;1281;74976;-80
2022/07/31 00:02:37;;;;;;;9.60;7.40;;;;;;;17.89;93.62;101062.15;107451;1281;70548;-81
2022/07/31 00:05:05;;;;;;;8.70;6.90;;;;;;;17.89;93.68;101068.34;107496;1279;73168;-80
2022/07/31 00:07:32;;;;;;;7.60;6.70;;;;;;;17.90;93.87;101066.35;107509;1281;62567;-80
2022/07/31 00:09:59;;;;;;;7.90;6.90;;;;;;;17.88;93.95;101069.25;107452;1282;61892;-80
2022/07/31 00:12:26;;;;;;;7.90;7.10;;;;;;;17.86;93.95;101068.48;107634;1281;75961;-80
2022/07/31 00:14:53;;;;;;;9.00;7.30;;;;;;;17.84;94.01;101064.33;107602;1282;72848;-80
2022/07/31 00:17:20;;;;;;;8.70;6.80;;;;;;;17.84;93.73;101065.39;107575;1281;72719;-80
2022/07/31 00:19:47;;;;;;;8.10;6.80;;;;;;;17.83;93.98;101070.51;107293;1281;63251;-81
2022/07/31 00:22:14;;;;;;;8.20;7.10;;;;;;;17.81;94.16;101072.69;107300;1281;61119;-80
2022/07/31 00:24:41;;;;;;;8.80;7.40;;;;;;;17.80;94.19;101071.73;107084;1282;74624;-80
2022/07/31 00:27:09;;;;;;;9.20;7.50;;;;;;;17.82;94.00;101075.08;107176;1284;72459;-80
2022/07/31 00:29:37;;;;;;;9.40;7.40;;;;;;;17.82;93.82;101070.75;107336;1281;73039;-80
2022/07/31 00:32:05;;;;;;;8.80;7.30;;;;;;;17.84;93.84;101072.38;107083;1281;62518;-80
2022/07/31 00:34:31;;;;;;;10.00;7.40;;;;;;;17.83;93.66;101071.02;107442;1281;59494;-81
2022/07/31 00:36:58;;;;;;;7.80;6.60;;;;;;;17.83;93.82;101071.79;107228;1282;75123;-80
2022/07/31 00:39:26;;;;;;;10.70;7.40;;;;;;;17.81;93.80;101070.58;107354;1281;72404;-80
2022/07/31 00:41:53;;;;;;;8.00;7.10;;;;;;;17.80;93.66;101069.75;107248;1282;73161;-79
2022/07/31 00:44:20;;;;;;;8.10;7.30;;;;;;;17.77;93.95;101070.88;107328;1282;62874;-79
2022/07/31 00:46:49;;;;;;;8.20;6.90;;;;;;;17.78;93.58;101065.89;107064;1282;62041;-79
2022/07/31 00:49:16;;;;;;;9.10;7.30;;;;;;;17.78;93.33;101058.48;107295;1279;74812;-80
2022/07/31 00:51:43;;;;;;;9.10;7.50;;;;;;;17.76;93.75;101056.85;107148;1284;71345;-79
2022/07/31 00:54:10;;;;;;;9.20;7.40;;;;;;;17.72;93.73;101059.96;107501;1279;72231;-80
2022/07/31 00:56:49;;;;;;;10.40;7.30;;;;;;;17.70;93.56;101053.95;107288;1282;62537;-79
2022/07/31 00:59:16;;;;;;;8.70;7.40;;;;;;;17.70;93.88;101055.06;107205;1281;62098;-80
2022/07/31 01:01:50;;;;;;;8.50;7.30;;;;;;;17.68;93.78;101054.48;107311;1281;76864;-79
2022/07/31 01:04:18;;;;;;;8.80;7.50;;;;;;;17.66;93.72;101051.73;107408;1281;71515;-80
2022/07/31 01:06:46;;;;;;;9.80;7.60;;;;;;;17.68;93.61;101057.50;107105;1282;72811;-80
2022/07/31 01:09:14;;;;;;;9.20;7.70;;;;;;;17.69;93.51;101057.58;107216;1282;62469;-80
2022/07/31 01:11:50;;;;;;;9.50;8.10;;;;;;;17.69;93.32;101056.25;107290;1281;61143;-80
2022/07/31 01:14:19;;;;;;;9.20;7.70;;;;;;;17.68;93.49;101053.42;107396;1280;74923;-80
2022/07/31 01:16:52;;;;;;;8.50;7.70;;;;;;;17.65;93.45;101051.80;107509;1281;71373;-80
2022/07/31 01:19:24;;;;;;;9.30;7.70;;;;;;;17.65;93.29;101050.09;107393;1281;73899;-80
2022/07/31 01:22:26;;;;;;;10.10;7.80;;;;;;;17.66;93.06;101048.80;107013;1281;63430;-80
2022/07/31 01:25:05;;;;;;;9.10;7.80;;;;;;;17.67;92.91;101048.96;107403;1281;60554;-80
2022/07/31 01:27:44;;;;;;;8.60;7.60;;;;;;;17.66;92.79;101049.80;107506;1282;75138;-80
2022/07/31 01:30:17;;;;;;;9.00;7.90;;;;;;;17.65;92.87;101049.88;107456;1281;70640;-80
2022/07/31 01:32:48;;;;;;;9.90;8.20;;;;;;;17.65;92.69;101043.48;107540;1282;73233;-80
2022/07/31 01:35:26;;;;;;;9.30;8.20;;;;;;;17.65;92.66;101045.91;107846;1279;62049;-79
2022/07/31 01:37:57;;;;;;;12.10;8.30;;;;;;;17.66;92.59;101045.83;107989;1280;60982;-80
2022/07/31 01:40:30;;;;;;;10.10;8.60;;;;;;;17.65;92.41;101046.45;107419;1279;75114;-81
2022/07/31 01:43:10;;;;;;;11.40;8.40;;;;;;;17.64;92.47;101050.96;107441;1279;71446;-80
2022/07/31 01:45:41;;;;;;;10.50;9.20;;;;;;;17.61;92.43;101053.44;107182;1282;73103;-80
2022/07/31 01:48:14;;;;;;;9.80;8.50;;;;;;;17.59;92.39;101057.55;107212;1282;62391;-80
2022/07/31 01:50:43;;;;;;;10.40;8.70;;;;;;;17.56;92.46;101057.23;107480;1281;60513;-79
2022/07/31 01:53:14;;;;;;;10.80;8.90;;;;;;;17.54;92.42;101049.48;107331;1279;75115;-79
2022/07/31 01:55:42;;;;;;;11.40;9.10;;;;;;;17.53;92.52;101049.89;107178;1283;71587;-80
2022/07/31 01:58:33;;;;;;;9.80;8.80;;;;;;;17.53;92.66;101056.20;107127;1281;73051;-79
2022/07/31 02:01:02;;;;;;;10.30;9.20;;;;;;;17.52;92.51;101052.41;107468;1281;64045;-80
2022/07/31 02:03:33;;;;;;;11.20;9.10;;;;;;;17.51;92.57;101053.52;107563;1279;61691;-80
2022/07/31 02:06:13;;;;;;;11.00;9.40;;;;;;;17.52;92.38;101052.20;107284;1282;76072;-80
2022/07/31 02:08:46;;;;;;;12.00;9.60;;;;;;;17.52;92.42;101045.52;107485;1281;71104;-80
2022/07/31 02:11:16;;;;;;;10.80;9.60;;;;;;;17.54;92.33;101041.77;107380;1281;74624;-80
2022/07/31 02:13:45;;;;;;;12.10;9.40;;;;;;;17.55;92.16;101037.33;107138;1282;63253;-80
2022/07/31 02:16:13;;;;;;;10.20;9.20;;;;;;;17.56;91.98;101043.20;107235;1281;61332;-81
2022/07/31 02:18:41;;;;;;;12.10;10.00;;;;;;;17.55;91.84;101045.76;107141;1281;76586;-79
2022/07/31 02:21:08;;;;;;;13.40;10.10;;;;;;;17.53;91.87;101041.80;107512;1281;72117;-80
2022/07/31 02:23:36;;;;;;;12.90;10.20;;;;;;;17.52;91.84;101045.08;107249;1281;72975;-80
2022/07/31 02:26:08;;;;;;;11.60;10.20;;;;;;;17.50;91.78;101048.54;107522;1281;62066;-80
2022/07/31 02:28:39;;;;;;;11.80;10.40;;;;;;;17.47;91.60;101048.23;107220;1281;60749;-79
2022/07/31 02:31:09;;;;;;;14.70;11.20;;;;;;;17.43;91.77;101045.02;107505;1279;76220;-80
2022/07/31 02:33:38;;;;;;;12.30;10.60;;;;;;;17.42;91.92;101047.73;107346;1282;73436;-79
2022/07/31 02:36:06;;;;;;;14.90;11.60;;;;;;;17.39;91.94;101044.31;107268;1281;72999;-79
2022/07/31 02:38:34;;;;;;;13.10;11.30;;;;;;;17.37;91.97;101042.48;107318;1281;61337;-80
2022/07/31 02:41:06;;;;;;;16.30;11.50;;;;;;;17.35;92.14;101041.00;107430;1279;61209;-79
2022/07/31 02:43:34;;;;;;;14.70;12.10;;;;;;;17.33;92.10;101040.39;107286;1281;76359;-80
2022/07/31 02:46:02;;;;;;;13.00;11.80;;;;;;;17.30;92.31;101041.27;107435;1281;71451;-80
2022/07/31 02:48:31;;;;;;;15.10;11.90;;;;;;;17.28;92.35;101034.79;107475;1280;72929;-79
2022/07/31 02:50:58;;;;;;;14.70;12.00;;;;;;;17.26;92.23;101036.31;107155;1282;61960;-80
2022/07/31 02:53:26;;;;;;;15.90;12.60;;;;;;;17.22;92.25;101034.73;107049;1282;61403;-80
2022/07/31 02:55:54;;;;;;;14.20;12.40;;;;;;;17.18;92.42;101034.83;107338;1281;76635;-80
2022/07/31 02:58:21;;;;;;;15.90;13.80;;;;;;;17.14;92.50;101034.95;107203;1281;72190;-82
2022/07/31 03:00:57;;;;;;;15.60;13.00;;;;;;;17.11;92.62;101030.66;107015;1282;73815;-80
2022/07/31 03:03:24;;;;;;;14.60;12.90;;;;;;;17.07;92.78;101037.44;107173;1281;62379;-79
2022/07/31 03:05:51;;;;;;;14.50;13.00;;;;;;;17.05;92.79;101044.58;107227;1282;60956;-80
2022/07/31 03:08:18;;;;;;;16.00;13.10;;;;;;;17.00;92.83;101041.70;107246;1282;75239;-79
2022/07/31 03:10:46;;;;;;;16.40;13.20;;;;;;;16.95;93.06;101041.41;107338;1281;71525;-79
2022/07/31 03:13:14;;;;;;;14.90;13.20;;;;;;;16.92;93.18;101039.36;107311;1281;72800;-79
2022/07/31 03:15:43;;;;;;;15.20;12.80;;;;;;;16.88;93.22;101034.83;107223;1282;61784;-79
2022/07/31 03:18:20;;;;;;;15.00;12.90;;;;;;;16.86;93.44;101029.85;107491;1280;61993;-80
2022/07/31 03:20:51;;;;;;;16.00;13.60;;;;;;;16.82;93.42;101025.85;107241;1282;75516;-80
2022/07/31 03:23:24;;;;;;;14.50;12.80;;;;;;;16.78;93.47;101022.65;107188;1282;71270;-80
2022/07/31 03:25:52;;;;;;;14.80;13.00;;;;;;;16.74;93.53;101018.54;107327;1281;73060;-80
2022/07/31 03:28:20;;;;;;;16.30;14.00;;;;;;;16.70;93.70;101021.17;107232;1281;62033;-80
2022/07/31 03:30:51;;;;;;;17.90;14.30;;;;;;;16.66;93.77;101020.61;107214;1281;59906;-80
2022/07/31 03:33:22;;;;;;;17.50;14.30;;;;;;;16.62;93.87;101017.27;107092;1281;73173;-80
2022/07/31 03:35:50;;;;;;;17.00;14.80;;;;;;;16.58;94.03;101022.17;107156;1279;72873;-80
2022/07/31 03:38:17;;;;;;;16.40;14.20;;;;;;;16.51;94.16;101021.60;107652;1282;73005;-80
2022/07/31 03:41:07;;;;;;;18.80;14.70;;;;;;;16.45;94.30;101018.48;107645;1281;61167;-80
2022/07/31 03:43:34;;;;;;;16.50;14.80;;;;;;;16.40;94.52;101018.63;107095;1279;60308;-80
2022/07/31 03:46:15;;;;;;;18.90;15.10;;;;;;;16.36;94.62;101021.67;107134;1282;76561;-80
2022/07/31 03:48:43;;;;;;;17.20;15.50;;;;;;;16.31;95.02;101019.08;107284;1281;70452;-80
2022/07/31 03:51:11;;;;;;;18.60;16.40;;;;;;;16.27;95.15;101019.27;106995;1283;73190;-80
2022/07/31 03:53:39;;;;;;;21.30;17.00;;;;;;;16.25;95.49;101018.86;107151;1281;61952;-80
2022/07/31 03:56:06;;;;;;;20.50;17.30;;;;;;;16.23;95.80;101022.52;107410;1281;61350;-80
2022/07/31 03:58:33;;;;;;;19.80;17.60;;;;;;;16.20;96.01;101022.81;107484;1281;75112;-80
2022/07/31 04:01:07;;;;;;;19.70;17.60;;;;;;;16.19;96.26;101017.91;107192;1281;72401;-80
2022/07/31 04:03:38;;;;;;;19.10;17.10;;;;;;;16.19;96.59;101019.84;106995;1282;74707;-80
2022/07/31 04:06:08;;;;;;;21.00;18.20;;;;;;;16.20;96.66;101021.58;107207;1282;62248;-80
2022/07/31 04:08:35;;;;;;;21.10;17.50;;;;;;;16.22;96.84;101025.27;107350;1281;59529;-80
2022/07/31 04:11:05;;;;;;;21.30;17.60;;;;;;;16.25;97.00;101026.36;107522;1280;74559;-80
2022/07/31 04:13:32;;;;;;;18.70;16.90;;;;;;;16.28;97.12;101021.83;107452;1280;72467;-80
2022/07/31 04:15:59;;;;;;;19.40;16.90;;;;;;;16.30;97.13;101024.39;107207;1281;74109;-80
2022/07/31 04:18:26;;;;;;;18.90;16.80;;;;;;;16.35;97.20;101017.89;107240;1284;63296;-80
2022/07/31 04:20:53;;;;;;;19.90;17.20;;;;;;;16.39;97.36;101018.71;107267;1281;61259;-80
2022/07/31 04:23:20;;;;;;;20.90;17.30;;;;;;;16.44;97.43;101018.84;107502;1281;74003;-80
2022/07/31 04:25:58;;;;;;;18.70;16.80;;;;;;;16.50;97.41;101021.52;107390;1281;71181;-80
2022/07/31 04:28:25;;;;;;;18.50;16.00;;;;;;;16.56;97.17;101020.52;107352;1281;74159;-80
2022/07/31 04:30:52;;;;;;;18.20;16.30;;;;;;;16.63;96.94;101019.08;107068;1281;62104;-80
2022/07/31 04:33:19;;;;;;;18.70;16.00;;;;;;;16.67;96.66;101018.22;107358;1279;60576;-80
2022/07/31 04:35:46;;;;;;;16.80;15.00;;;;;;;16.71;96.46;101017.18;107502;1281;75796;-80
2022/07/31 04:38:15;;;;;;;16.70;15.00;;;;;;;16.75;96.42;101017.89;107303;1281;71303;-80
2022/07/31 04:40:42;;;;;;;16.30;13.80;;;;;;;16.80;96.44;101014.33;107337;1281;72402;-80
2022/07/31 04:43:09;;;;;;;16.90;13.80;;;;;;;16.84;96.19;101013.48;107450;1281;63782;-80
2022/07/31 04:45:36;;;;;;;14.80;13.20;;;;;;;16.87;96.12;101018.17;107275;1282;61057;-80
2022/07/31 04:48:04;;;;;;;13.30;11.90;;;;;;;16.91;95.94;101019.29;107240;1282;74734;-80
2022/07/31 04:50:32;;;;;;;14.70;11.60;;;;;;;16.96;95.82;101017.80;107519;1281;72432;-80
2022/07/31 04:52:59;;;;;;;11.80;10.50;;;;;;;16.98;95.75;101017.00;107411;1280;73019;-79
2022/07/31 04:55:26;;;;;;;12.30;11.10;;;;;;;17.01;95.53;101025.58;107426;1281;63270;-79
2022/07/31 04:57:53;;;;;;;13.40;10.50;;;;;;;17.06;95.59;101018.10;107350;1281;60422;-80
2022/07/31 05:00:21;;;;;;;14.20;10.70;;;;;;;17.12;95.50;101018.70;107326;1281;76257;-80
2022/07/31 05:02:48;;;;;;;11.40;10.20;;;;;;;17.17;95.47;101019.07;107367;1281;71375;-79
2022/07/31 05:05:17;;;;;;;11.00;9.90;;;;;;;17.23;95.21;101020.95;107340;1280;75911;-79
2022/07/31 05:07:44;;;;;;;12.70;10.70;;;;;;;17.27;95.06;101022.58;107422;1281;61991;-80
2022/07/31 05:11:21;;;;;;;12.30;10.60;;;;;;;17.31;94.88;101027.40;107220;1281;61169;-80
2022/07/31 05:12:58;;;;;;;13.00;10.30;;;;;;;17.36;94.80;101032.04;107274;1282;73897;-80
2022/07/31 05:15:25;;;;;;;13.70;10.20;;;;;;;17.39;94.56;101031.23;107194;1284;72270;-80
2022/07/31 05:17:52;;;;;;;12.90;10.30;;;;;;;17.43;94.38;101038.98;107216;1280;73052;-79
2022/07/31 05:20:19;;;;;;;10.80;9.70;;;;;;;17.46;94.26;101037.34;107526;1280;62613;-79
2022/07/31 05:22:46;;;;;;;12.20;9.60;;;;;;;17.51;94.23;101035.04;107540;1281;60903;-79
2022/07/31 05:25:14;;;;;;;11.50;9.50;;;;;;;17.58;94.01;101027.55;107209;1282;74894;-80
2022/07/31 05:27:40;;;;;;;10.30;9.00;;;;;;;17.64;93.70;101029.04;107421;1281;72060;-80
2022/07/31 05:30:09;;;;;;;10.20;9.10;;;;;;;17.71;93.07;101027.44;107281;1282;73151;-79
2022/07/31 05:32:37;;;;;;;11.10;8.40;;;;;;;17.73;92.35;101027.64;107564;1281;62486;-80
2022/07/31 05:35:04;;;;;;;11.00;8.80;;;;;;;17.76;91.96;101025.36;107157;1281;60713;-80
2022/07/31 05:37:33;;;;;;;10.00;8.40;;;;;;;17.81;91.99;101026.38;107447;1279;76004;-80
2022/07/31 05:40:00;;;;;;;10.20;8.00;;;;;;;17.86;91.77;101021.41;107347;1281;71457;-80
2022/07/31 05:42:27;;;;;;;10.00;8.10;;;;;;;17.95;91.79;101021.29;107440;1281;73303;-80
2022/07/31 05:44:54;;;;;;;8.80;7.90;;;;;;;18.04;91.54;101019.39;107486;1280;62398;-80
2022/07/31 05:47:21;;;;;;;9.50;8.50;;;;;;;18.13;91.02;101017.44;107367;1281;60333;-80
2022/07/31 05:49:49;;;;;;;9.70;7.90;;;;;;;18.23;90.66;101016.27;107409;1281;73632;-80
2022/07/31 05:52:19;;;;;;;12.90;8.40;;;;;;;18.34;90.32;101012.91;107290;1281;71335;-80
2022/07/31 05:54:46;;;;;;;11.10;7.60;;;;;;;18.44;89.63;101010.34;107297;1281;73851;-80
2022/07/31 05:57:12;;;;;;;9.30;7.20;;;;;;;18.53;89.21;101008.75;107572;1281;63282;-80
2022/07/31 06:00:00;;;;;;;9.30;7.10;;;;;;;18.62;88.64;101009.37;107372;1281;61263;-81
2022/07/31 06:02:30;;;;;;;9.50;7.20;;;;;;;18.72;88.43;101008.61;107299;1281;75132;-80
2022/07/31 06:04:57;;;;;;;9.20;6.80;;;;;;;18.81;87.89;101013.16;107482;1280;71417;-81
2022/07/31 06:07:24;;;;;;;11.70;6.80;;;;;;;18.88;87.15;101015.77;107372;1282;73611;-80
2022/07/31 06:09:51;;;;;;;7.60;6.80;;;;;;;18.96;86.97;101015.20;107239;1281;62195;-81
2022/07/31 06:12:18;;;;;;;8.00;7.20;;;;;;;18.98;86.19;101014.09;107368;1281;60603;-80
2022/07/31 06:14:45;;;;;;;7.60;6.60;;;;;;;19.04;86.51;101007.50;107554;1281;76882;-80
2022/07/31 06:17:12;;;;;;;10.10;7.00;;;;;;;19.13;86.20;101002.71;107768;1281;71564;-80
2022/07/31 06:19:39;;;;;;;8.00;5.90;;;;;;;19.25;86.00;101003.92;107333;1282;72684;-81
2022/07/31 06:22:06;;;;;;;8.10;6.20;;;;;;;19.32;84.76;101008.27;107441;1284;62039;-80
2022/07/31 06:24:33;;;;;;;6.90;6.10;;;;;;;19.36;84.08;101006.81;107761;1281;61128;-81
2022/07/31 06:27:01;;;;;;;9.00;6.20;;;;;;;19.44;84.30;101002.57;107727;1281;75942;-81
2022/07/31 06:29:28;;;;;;;7.80;5.90;;;;;;;19.48;83.12;101003.88;107479;1281;71451;-81
2022/07/31 06:32:08;;;;;;;8.10;5.80;;;;;;;19.53;82.99;101001.38;107615;1282;72937;-80
2022/07/31 06:34:35;;;;;;;6.70;5.50;;;;;;;19.59;82.63;101004.81;107805;1281;62546;-81
2022/07/31 06:37:02;;;;;;;7.80;5.60;;;;;;;19.64;82.19;101002.43;107733;1281;59790;-81
2022/07/31 06:39:29;;;;;;;7.20;5.20;;;;;;;19.74;82.01;100997.77;107701;1282;75348;-80
2022/07/31 06:42:21;;;;;;;7.80;5.80;;;;;;;19.87;81.52;101000.48;108047;1282;72846;-80
2022/07/31 06:44:48;;;;;;;5.90;4.80;;;;;;;19.97;80.97;101002.34;107906;1282;72117;-81
2022/07/31 06:47:25;;;;;;;8.10;5.50;;;;;;;20.03;80.35;101000.25;107890;1279;61407;-80
2022/07/31 06:49:52;;;;;;;7.10;4.90;;;;;;;20.12;80.24;101005.92;108096;1280;60327;-80
2022/07/31 06:52:19;;;;;;;7.70;5.40;;;;;;;20.23;80.14;101011.26;107819;1281;73454;-80
2022/07/31 06:54:46;;;;;;;9.60;6.20;;;;;;;20.35;79.62;101007.73;107807;1282;70298;-81
2022/07/31 06:57:13;;;;;;;8.70;5.70;;;;;;;20.41;79.21;101007.21;107827;1282;73116;-80
2022/07/31 06:59:40;;;;;;;9.30;5.60;;;;;;;20.48;79.46;101007.87;107869;1282;62024;-80
2022/07/31 07:02:08;;;;;;;7.40;5.70;;;;;;;20.57;79.46;101006.38;107621;1281;60871;-80
2022/07/31 07:04:36;;;;;;;9.60;6.00;;;;;;;20.66;78.90;101009.19;108012;1281;74998;-80
2022/07/31 07:07:23;;;;;;;7.90;5.90;;;;;;;20.69;78.51;101013.47;107521;1282;72926;-81
2022/07/31 07:09:57;;;;;;;7.60;5.60;;;;;;;20.70;78.18;101011.88;107764;1281;74704;-80
2022/07/31 07:12:24;;;;;;;7.50;5.70;;;;;;;20.73;78.02;101006.31;107409;1282;61998;-81
2022/07/31 07:14:52;;;;;;;6.70;5.30;;;;;;;20.77;77.68;101003.45;107630;1281;60306;-81
2022/07/31 07:17:19;;;;;;;8.90;5.10;;;;;;;20.83;76.93;100999.59;107604;1281;75597;-80
2022/07/31 07:19:49;;;;;;;6.80;5.00;;;;;;;20.88;76.93;100999.23;107745;1282;72152;-81
2022/07/31 07:22:21;;;;;;;6.80;4.90;;;;;;;21.01;77.01;100998.27;107362;1282;73115;-80
2022/07/31 07:24:58;;;;;;;6.80;4.40;;;;;;;21.22;76.59;100993.19;107471;1280;62749;-80
2022/07/31 07:27:25;;;;;;;8.20;4.60;;;;;;;21.43;74.99;100994.89;107323;1282;60296;-80
2022/07/31 07:29:52;;;;;;;6.20;4.40;;;;;;;21.57;73.42;100992.41;107266;1283;74743;-80
2022/07/31 07:32:19;;;;;;;6.70;3.70;;;;;;;21.71;72.17;100995.67;107534;1281;71430;-80
2022/07/31 07:34:46;;;;;;;8.10;4.00;;;;;;;21.85;72.09;100995.56;107541;1281;72980;-79
2022/07/31 07:37:25;;;;;;;8.20;3.90;;;;;;;22.08;72.21;100994.13;107425;1281;62604;-80
2022/07/31 07:39:52;;;;;;;6.90;3.90;;;;;;;22.26;70.10;100994.79;107454;1281;61285;-80
2022/07/31 07:42:19;;;;;;;5.20;3.40;;;;;;;22.44;69.78;100993.17;107509;1280;74889;-79
2022/07/31 07:44:46;;;;;;;5.80;3.00;;;;;;;22.69;68.93;100986.89;107342;1282;71353;-80
2022/07/31 07:47:12;;;;;;;4.00;2.70;;;;;;;22.92;66.82;100985.16;107526;1282;73754;-80
2022/07/31 07:49:39;;;;;;;6.90;3.00;;;;;;;23.19;65.92;100984.72;107086;1284;62282;-80
2022/07/31 07:52:07;;;;;;;5.40;2.60;;;;;;;23.47;64.70;100977.95;107460;1281;61156;-80
2022/07/31 07:54:33;;;;;;;4.60;2.20;;;;;;;23.68;62.53;100977.63;107651;1281;74948;-80
2022/07/31 07:57:00;;;;;;;6.30;2.80;;;;;;;23.88;60.83;100980.61;107348;1281;75104;-80
2022/07/31 07:59:27;;;;;;;4.40;2.20;;;;;;;24.09;59.58;100977.44;107419;1281;73617;-80
2022/07/31 08:01:54;;;;;;;4.30;2.30;;;;;;;24.27;57.99;100974.98;107405;1281;62071;-80
2022/07/31 08:04:21;;;;;;;5.00;2.10;;;;;;;24.51;58.12;100969.46;107048;1282;61126;-79
2022/07/31 08:06:48;;;;;;;4.10;1.70;;;;;;;24.75;56.21;100962.14;107484;1281;76264;-80
2022/07/31 08:09:14;;;;;;;5.20;1.90;;;;;;;24.92;53.98;100957.88;107306;1282;72684;-80
2022/07/31 08:11:41;;;;;;;3.50;1.70;;;;;;;25.00;52.20;100956.51;107600;1281;72226;-80
2022/07/31 08:14:09;;;;;;;4.60;1.50;;;;;;;24.99;50.53;100952.70;107192;1282;60646;-80
2022/07/31 08:16:41;;;;;;;3.60;1.60;;;;;;;25.09;50.97;100948.67;107262;1281;61010;-80
2022/07/31 08:19:08;;;;;;;4.40;1.70;;;;;;;25.17;50.71;100947.73;107363;1281;74948;-81
2022/07/31 08:21:36;;;;;;;4.00;1.90;;;;;;;25.31;50.68;100946.05;107491;1281;71859;-81
2022/07/31 08:24:03;;;;;;;4.60;1.60;;;;;;;25.46;50.94;100941.91;107915;1281;72881;-80
2022/07/31 08:29:15;;;;;;;3.80;1.60;;;;;;;25.58;49.11;100944.15;107821;1281;61212;-80
2022/07/31 08:31:53;;;;;;;3.70;1.60;;;;;;;25.56;48.05;100938.71;107616;1282;76222;-80
2022/07/31 08:34:20;;;;;;;3.40;1.40;;;;;;;25.54;47.92;100938.00;107495;1281;71420;-80
2022/07/31 08:36:58;;;;;;;4.30;1.60;;;;;;;25.54;47.78;100934.69;107459;1282;71967;-81
2022/07/31 08:39:45;;;;;;;4.70;1.70;;;;;;;25.64;48.74;100934.00;107494;1280;60576;-80
2022/07/31 08:42:12;;;;;;;4.90;1.40;;;;;;;25.81;47.84;100933.63;107479;1280;61524;-80
2022/07/31 08:44:41;;;;;;;3.10;1.60;;;;;;;25.83;46.78;100937.39;107368;1281;74948;-80
2022/07/31 08:47:14;;;;;;;3.00;1.50;;;;;;;25.72;47.21;100937.77;107585;1281;71374;-80
2022/07/31 08:49:46;;;;;;;3.70;1.70;;;;;;;25.66;47.72;100938.78;107282;1282;74080;-80
2022/07/31 08:52:23;;;;;;;4.50;1.80;;;;;;;25.64;47.72;100937.16;107470;1281;61896;-81
2022/07/31 08:54:52;;;;;;;2.90;1.60;;;;;;;25.70;48.15;100930.30;107326;1282;61466;-81
2022/07/31 08:57:19;;;;;;;3.90;1.80;;;;;;;25.67;47.74;100932.42;107245;1282;74999;-80
2022/07/31 08:59:51;;;;;;;4.80;1.70;;;;;;;25.65;47.64;100930.64;107545;1281;71337;-80
2022/07/31 09:02:18;;;;;;;3.20;1.60;;;;;;;25.72;48.23;100926.78;107309;1281;74124;-80
2022/07/31 09:04:45;;;;;;;3.20;1.60;;;;;;;25.82;48.23;100929.17;107238;1281;61499;-80
2022/07/31 09:07:17;;;;;;;5.90;1.70;;;;;;;25.94;48.24;100927.04;107434;1281;61666;-81
2022/07/31 09:09:46;;;;;;;4.50;1.50;;;;;;;26.09;47.93;100928.02;107418;1281;77069;-80
2022/07/31 09:12:32;;;;;;;4.80;1.90;;;;;;;26.18;46.91;100929.14;107176;1282;71383;-81
2022/07/31 09:15:00;;;;;;;4.40;1.90;;;;;;;26.17;45.61;100927.95;107337;1280;72991;-81
2022/07/31 09:17:35;;;;;;;5.10;1.60;;;;;;;26.23;45.55;100925.39;107306;1282;61650;-81
2022/07/31 09:20:03;;;;;;;4.20;1.30;;;;;;;26.25;45.42;100925.11;107264;1284;60616;-81
2022/07/31 09:22:30;;;;;;;4.10;2.20;;;;;;;26.31;45.48;100919.39;107400;1281;75292;-81
2022/07/31 09:25:17;;;;;;;3.90;1.50;;;;;;;26.37;45.40;100918.55;107288;1281;72663;-81
2022/07/31 09:27:47;;;;;;;3.20;1.30;;;;;;;26.37;43.94;100918.18;107325;1281;74195;-81
2022/07/31 09:30:14;;;;;;;3.50;1.30;;;;;;;26.37;43.76;100915.79;107564;1281;60384;-81
2022/07/31 09:32:42;;;;;;;2.40;1.30;;;;;;;26.43;42.65;100908.38;107603;1281;61152;-81
2022/07/31 09:35:11;;;;;;;2.60;1.20;;;;;;;26.47;42.58;100901.56;107405;1281;74925;-81
2022/07/31 09:37:39;;;;;;;3.70;1.40;;;;;;;26.59;42.62;100900.88;107400;1281;71619;-81
2022/07/31 09:40:08;;;;;;;5.10;1.30;;;;;;;26.69;42.55;100900.15;107395;1281;73147;-81
2022/07/31 09:42:42;;;;;;;3.60;1.50;;;;;;;26.76;43.30;100899.42;107344;1281;61361;-81
2022/07/31 09:45:24;;;;;;;2.60;1.40;;;;;;;26.84;43.07;100898.40;107311;1280;61264;-81
2022/07/31 09:48:11;;;;;;;3.40;1.40;;;;;;;27.03;42.30;100901.52;107152;1281;73971;-81
2022/07/31 09:50:53;;;;;;;3.60;1.50;;;;;;;27.21;41.92;100891.31;107378;1281;71265;-81
2022/07/31 09:53:20;;;;;;;2.60;1.30;;;;;;;27.31;41.68;100891.31;107117;1282;74459;-81
2022/07/31 09:55:56;;;;;;;2.50;1.30;;;;;;;27.32;40.92;100889.94;107264;1281;61400;-82
2022/07/31 09:58:23;;;;;;;3.40;1.30;;;;;;;27.39;40.33;100886.64;107284;1282;60369;-82
2022/07/31 10:00:52;;;;;;;2.70;1.00;;;;;;;27.51;41.10;100879.34;107462;1281;76116;-81
2022/07/31 10:03:20;;;;;;;2.40;1.10;;;;;;;27.74;40.54;100876.77;107475;1281;72330;-81
2022/07/31 10:05:48;;;;;;;1.50;0.90;;;;;;;28.01;39.86;100875.58;107349;1281;74516;-81
2022/07/31 10:08:16;;;;;;;3.20;1.20;;;;;;;28.21;39.06;100873.63;107445;1281;61938;-81
2022/07/31 10:10:44;;;;;;;3.00;1.30;;;;;;;28.38;38.32;100878.20;107338;1281;61200;-81
2022/07/31 10:13:16;;;;;;;2.70;1.00;;;;;;;28.45;37.38;100874.23;107324;1281;75953;-81
2022/07/31 10:15:45;;;;;;;4.40;1.10;;;;;;;28.60;37.51;100868.41;107394;1281;71197;-81
2022/07/31 10:18:16;;;;;;;3.40;1.20;;;;;;;28.75;37.50;100870.23;107557;1281;74124;-81
2022/07/31 10:20:51;;;;;;;4.60;1.30;;;;;;;28.79;35.77;100872.25;107487;1281;61469;-81
2022/07/31 10:23:25;;;;;;;3.30;1.10;;;;;;;28.64;34.64;100872.29;107318;1282;61654;-80
2022/07/31 10:25:58;;;;;;;3.00;1.40;;;;;;;28.60;35.35;100865.94;107357;1281;74815;-81
2022/07/31 10:28:25;;;;;;;4.00;1.30;;;;;;;28.74;35.67;100859.65;107415;1281;72501;-81
2022/07/31 10:30:52;;;;;;;3.50;1.30;;;;;;;28.99;35.68;100857.80;107545;1281;73491;-81
2022/07/31 10:33:20;;;;;;;4.80;1.30;;;;;;;29.21;35.05;100853.34;107164;1281;59352;-80
2022/07/31 10:36:24;;;;;;;4.70;1.30;;;;;;;29.37;33.25;100849.54;107213;1281;60211;-81
2022/07/31 10:39:01;;;;;;;3.70;1.10;;;;;;;29.45;33.12;100848.27;107316;1281;76380;-81
2022/07/31 10:41:43;;;;;;;3.90;1.10;;;;;;;29.52;33.46;100848.44;107255;1282;70235;-81
2022/07/31 10:44:29;;;;;;;3.20;1.10;;;;;;;29.59;32.70;100844.36;107392;1281;74561;-81
2022/07/31 10:47:11;;;;;;;3.70;1.00;;;;;;;29.58;32.30;100844.35;107141;1283;60610;-81
2022/07/31 10:49:42;;;;;;;4.50;1.30;;;;;;;29.43;32.91;100841.63;107351;1282;61026;-81
2022/07/31 10:52:10;;;;;;;3.80;1.00;;;;;;;29.38;33.58;100835.92;107407;1281;74985;-81
2022/07/31 10:54:46;;;;;;;2.50;1.10;;;;;;;29.25;32.53;100834.53;107137;1281;72406;-81
2022/07/31 10:57:23;;;;;;;4.40;1.00;;;;;;;29.18;33.51;100833.17;107292;1281;74131;-81
2022/07/31 10:59:51;;;;;;;2.20;1.10;;;;;;;29.16;33.86;100827.30;107378;1281;62212;-81
2022/07/31 11:02:32;;;;;;;3.30;1.30;;;;;;;29.12;34.11;100831.52;106827;1284;454925;-81
2022/07/31 11:05:26;;;;;;;4.90;1.30;;;;;;;28.99;34.69;100824.64;107264;1284;77354;-81
2022/07/31 11:08:03;;;;;;;3.40;1.30;;;;;;;28.88;34.67;100821.36;107174;1282;71999;-82
2022/07/31 11:10:30;;;;;;;3.10;1.20;;;;;;;28.84;34.95;100821.20;107436;1280;73053;-81
2022/07/31 11:13:05;;;;;;;4.50;1.20;;;;;;;28.81;35.79;100814.73;107163;1281;61668;-82
2022/07/31 11:15:32;;;;;;;2.70;1.10;;;;;;;28.79;35.55;100813.34;107494;1281;60419;-82
2022/07/31 11:18:14;;;;;;;3.30;1.70;;;;;;;28.69;35.98;100818.08;107232;1281;74796;-82
2022/07/31 11:21:09;;;;;;;4.50;1.80;;;;;;;28.67;36.16;100816.23;107366;1281;72467;-82
2022/07/31 11:23:56;;;;;;;3.80;1.50;;;;;;;28.76;36.70;100807.50;107315;1281;74969;-83
2022/07/31 11:26:29;;;;;;;3.90;1.40;;;;;;;28.79;36.81;100808.86;107281;1283;62292;-83
2022/07/31 11:29:08;;;;;;;2.80;1.30;;;;;;;28.88;36.82;100804.64;107179;1281;60468;-84